sensor_id;sensor_type;location;lat;lon;timestamp;pressure;altitude;pressure_sealevel;temperature;humidity
35519;BME280;21627;48.216;16.482;2023-12-28T00:00:25;100219.47;;;2.15;100.00
35519;BME280;21627;48.216;16.482;2023-12-28T00:02:52;100229.78;;;2.19;100.00
35519;BME280;21627;48.216;16.482;2023-12-28T00:05:20;100238.19;;;2.16;100.00
35519;BME280;21627;48.216;16.482;2023-12-28T00:07:47;100233.59;;;2.07;100.00
35519;BME280;21627;48.216;16.482;2023-12-28T00:10:14;100242.03;;;2.06;100.00
35519;BME280;21627;48.216;16.482;2023-12-28T00:12:41;100244.66;;;2.08;100.00
35519;BME280;21627;48.216;16.482;2023-12-28T00:15:09;100243.66;;;2.04;100.00
35519;BME280;21627;48.216;16.482;2023-12-28T00:17:36;100241.16;;;2.06;100.00
35519;BME280;21627;48.216;16.482;2023-12-28T00:20:04;100242.09;;;2.08;100.00
35519;BME280;21627;48.216;16.482;2023-12-28T00:22:31;100239.34;;;2.03;100.00
35519;BME280;21627;48.216;16.482;2023-12-28T00:24:59;100244.34;;;2.00;100.00
35519;BME280;21627;48.216;16.482;2023-12-28T00:27:26;100245.94;;;1.98;100.00
35519;BME280;21627;48.216;16.482;2023-12-28T00:29:53;100250.06;;;1.94;100.00
35519;BME280;21627;48.216;16.482;2023-12-28T00:32:20;100243.81;;;1.88;100.00
35519;BME280;21627;48.216;16.482;2023-12-28T00:34:47;100242.75;;;1.83;100.00
35519;BME280;21627;48.216;16.482;2023-12-28T00:37:14;100248.91;;;1.88;100.00
35519;BME280;21627;48.216;16.482;2023-12-28T00:39:41;100248.03;;;1.87;100.00
35519;BME280;21627;48.216;16.482;2023-12-28T00:42:08;100243.72;;;1.86;100.00
35519;BME280;21627;48.216;16.482;2023-12-28T00:44:36;100251.38;;;1.86;100.00
35519;BME280;21627;48.216;16.482;2023-12-28T00:47:03;100248.59;;;1.80;100.00
35519;BME280;21627;48.216;16.482;2023-12-28T00:49:31;100246.84;;;1.79;100.00
35519;BME280;21627;48.216;16.482;2023-12-28T00:51:58;100251.97;;;1.79;100.00
35519;BME280;21627;48.216;16.482;2023-12-28T00:54:25;100251.75;;;1.75;100.00
35519;BME280;21627;48.216;16.482;2023-12-28T00:56:52;100248.13;;;1.69;100.00
35519;BME280;21627;48.216;16.482;2023-12-28T00:59:19;100246.25;;;1.65;100.00
35519;BME280;21627;48.216;16.482;2023-12-28T01:01:46;100241.03;;;1.62;100.00
35519;BME280;21627;48.216;16.482;2023-12-28T01:04:13;100231.56;;;1.60;100.00
35519;BME280;21627;48.216;16.482;2023-12-28T01:06:41;100246.00;;;1.59;100.00
35519;BME280;21627;48.216;16.482;2023-12-28T01:09:08;100242.63;;;1.60;100.00
35519;BME280;21627;48.216;16.482;2023-12-28T01:11:35;100242.50;;;1.57;100.00
35519;BME280;21627;48.216;16.482;2023-12-28T01:14:02;100234.84;;;1.57;100.00
35519;BME280;21627;48.216;16.482;2023-12-28T01:16:29;100240.72;;;1.56;100.00
35519;BME280;21627;48.216;16.482;2023-12-28T01:18:57;100240.59;;;1.53;100.00
35519;BME280;21627;48.216;16.482;2023-12-28T01:21:24;100237.09;;;1.51;100.00
35519;BME280;21627;48.216;16.482;2023-12-28T01:23:52;100239.66;;;1.51;100.00
35519;BME280;21627;48.216;16.482;2023-12-28T01:26:19;100248.25;;;1.53;100.00
35519;BME280;21627;48.216;16.482;2023-12-28T01:28:46;100250.94;;;1.56;100.00
35519;BME280;21627;48.216;16.482;2023-12-28T01:31:13;100248.47;;;1.58;100.00
35519;BME280;21627;48.216;16.482;2023-12-28T01:33:40;100247.59;;;1.57;100.00
35519;BME280;21627;48.216;16.482;2023-12-28T01:36:18;100236.44;;;1.55;100.00
35519;BME280;21627;48.216;16.482;2023-12-28T01:38:46;100227.22;;;1.57;100.00
35519;BME280;21627;48.216;16.482;2023-12-28T01:41:13;100235.84;;;1.61;100.00
35519;BME280;21627;48.216;16.482;2023-12-28T01:43:42;100237.94;;;1.69;100.00
35519;BME280;21627;48.216;16.482;2023-12-28T01:46:18;100226.25;;;1.75;100.00
35519;BME280;21627;48.216;16.482;2023-12-28T01:48:48;100230.66;;;1.79;100.00
35519;BME280;21627;48.216;16.482;2023-12-28T01:51:16;100233.63;;;1.88;100.00
35519;BME280;21627;48.216;16.482;2023-12-28T01:53:45;100231.06;;;1.88;100.00
35519;BME280;21627;48.216;16.482;2023-12-28T01:56:15;100231.19;;;1.91;100.00
35519;BME280;21627;48.216;16.482;2023-12-28T01:58:43;100226.28;;;1.95;100.00
35519;BME280;21627;48.216;16.482;2023-12-28T02:01:11;100227.53;;;2.05;100.00
35519;BME280;21627;48.216;16.482;2023-12-28T02:03:39;100228.81;;;2.15;100.00
35519;BME280;21627;48.216;16.482;2023-12-28T02:06:07;100213.31;;;2.10;100.00
35519;BME280;21627;48.216;16.482;2023-12-28T02:08:34;100214.44;;;2.17;100.00
35519;BME280;21627;48.216;16.482;2023-12-28T02:11:01;100200.13;;;2.21;100.00
35519;BME280;21627;48.216;16.482;2023-12-28T02:13:28;100210.41;;;2.22;100.00
35519;BME280;21627;48.216;16.482;2023-12-28T02:16:36;100207.22;;;2.28;100.00
35519;BME280;21627;48.216;16.482;2023-12-28T02:18:57;100199.03;;;2.36;100.00
35519;BME280;21627;48.216;16.482;2023-12-28T02:21:28;100202.66;;;2.42;100.00
35519;BME280;21627;48.216;16.482;2023-12-28T02:23:55;100201.75;;;2.40;100.00
35519;BME280;21627;48.216;16.482;2023-12-28T02:26:22;100194.13;;;2.41;100.00
35519;BME280;21627;48.216;16.482;2023-12-28T02:28:50;100196.19;;;2.50;100.00
35519;BME280;21627;48.216;16.482;2023-12-28T02:31:28;100184.59;;;2.58;100.00
35519;BME280;21627;48.216;16.482;2023-12-28T02:34:08;100184.59;;;2.58;100.00
35519;BME280;21627;48.216;16.482;2023-12-28T02:36:41;100187.19;;;2.59;100.00
35519;BME280;21627;48.216;16.482;2023-12-28T02:39:14;100174.84;;;2.70;100.00
35519;BME280;21627;48.216;16.482;2023-12-28T02:41:43;100183.91;;;2.85;100.00
35519;BME280;21627;48.216;16.482;2023-12-28T02:44:12;100181.31;;;2.83;100.00
35519;BME280;21627;48.216;16.482;2023-12-28T02:46:40;100183.84;;;2.83;100.00
35519;BME280;21627;48.216;16.482;2023-12-28T02:49:07;100176.31;;;2.86;100.00
35519;BME280;21627;48.216;16.482;2023-12-28T02:51:34;100183.31;;;2.92;100.00
35519;BME280;21627;48.216;16.482;2023-12-28T02:54:02;100184.34;;;2.97;100.00
35519;BME280;21627;48.216;16.482;2023-12-28T02:56:30;100189.28;;;3.15;100.00
35519;BME280;21627;48.216;16.482;2023-12-28T02:58:59;100183.53;;;3.20;100.00
35519;BME280;21627;48.216;16.482;2023-12-28T03:01:26;100187.13;;;3.25;100.00
35519;BME280;21627;48.216;16.482;2023-12-28T03:03:54;100198.59;;;3.37;100.00
35519;BME280;21627;48.216;16.482;2023-12-28T03:06:21;100194.53;;;3.42;100.00
35519;BME280;21627;48.216;16.482;2023-12-28T03:08:48;100194.59;;;3.43;100.00
35519;BME280;21627;48.216;16.482;2023-12-28T03:11:16;100188.63;;;3.43;100.00
35519;BME280;21627;48.216;16.482;2023-12-28T03:13:43;100198.88;;;3.44;100.00
35519;BME280;21627;48.216;16.482;2023-12-28T03:16:10;100198.22;;;3.50;100.00
35519;BME280;21627;48.216;16.482;2023-12-28T03:18:37;100211.06;;;3.52;100.00
35519;BME280;21627;48.216;16.482;2023-12-28T03:21:05;100211.16;;;3.55;100.00
35519;BME280;21627;48.216;16.482;2023-12-28T03:23:32;100218.06;;;3.57;100.00
35519;BME280;21627;48.216;16.482;2023-12-28T03:26:01;100212.16;;;3.58;100.00
35519;BME280;21627;48.216;16.482;2023-12-28T03:28:28;100200.19;;;3.57;100.00
35519;BME280;21627;48.216;16.482;2023-12-28T03:30:55;100203.84;;;3.64;100.00
35519;BME280;21627;48.216;16.482;2023-12-28T03:33:22;100208.00;;;3.62;100.00
35519;BME280;21627;48.216;16.482;2023-12-28T03:35:49;100215.78;;;3.65;100.00
35519;BME280;21627;48.216;16.482;2023-12-28T03:38:18;100214.91;;;3.64;100.00
35519;BME280;21627;48.216;16.482;2023-12-28T03:40:45;100215.03;;;3.67;100.00
35519;BME280;21627;48.216;16.482;2023-12-28T03:43:14;100221.31;;;3.76;100.00
35519;BME280;21627;48.216;16.482;2023-12-28T03:45:41;100208.34;;;3.71;100.00
35519;BME280;21627;48.216;16.482;2023-12-28T03:48:09;100203.34;;;3.74;100.00
35519;BME280;21627;48.216;16.482;2023-12-28T03:50:36;100209.31;;;3.75;100.00
35519;BME280;21627;48.216;16.482;2023-12-28T03:53:03;100210.94;;;3.73;100.00
35519;BME280;21627;48.216;16.482;2023-12-28T03:55:30;100213.75;;;3.80;100.00
35519;BME280;21627;48.216;16.482;2023-12-28T03:57:57;100203.50;;;3.79;100.00
35519;BME280;21627;48.216;16.482;2023-12-28T04:00:26;100197.78;;;3.86;100.00
35519;BME280;21627;48.216;16.482;2023-12-28T04:02:53;100207.13;;;3.85;100.00
35519;BME280;21627;48.216;16.482;2023-12-28T04:05:21;100206.25;;;3.85;100.00
35519;BME280;21627;48.216;16.482;2023-12-28T04:07:48;100206.34;;;3.88;100.00
35519;BME280;21627;48.216;16.482;2023-12-28T04:10:28;100207.28;;;3.90;100.00
35519;BME280;21627;48.216;16.482;2023-12-28T04:12:57;100214.16;;;3.91;100.00
35519;BME280;21627;48.216;16.482;2023-12-28T04:15:26;100209.91;;;3.92;100.00
35519;BME280;21627;48.216;16.482;2023-12-28T04:17:53;100219.25;;;3.91;100.00
35519;BME280;21627;48.216;16.482;2023-12-28T04:20:20;100221.81;;;3.91;100.00
35519;BME280;21627;48.216;16.482;2023-12-28T04:22:47;100220.06;;;3.90;100.00
35519;BME280;21627;48.216;16.482;2023-12-28T04:25:15;100226.97;;;3.93;100.00
35519;BME280;21627;48.216;16.482;2023-12-28T04:27:45;100223.38;;;3.87;100.00
35519;BME280;21627;48.216;16.482;2023-12-28T04:30:12;100242.38;;;3.94;100.00
35519;BME280;21627;48.216;16.482;2023-12-28T04:32:40;100233.94;;;3.97;100.00
35519;BME280;21627;48.216;16.482;2023-12-28T04:35:07;100238.19;;;3.96;100.00
35519;BME280;21627;48.216;16.482;2023-12-28T04:37:34;100234.81;;;3.97;100.00
35519;BME280;21627;48.216;16.482;2023-12-28T04:40:02;100256.22;;;3.99;100.00
35519;BME280;21627;48.216;16.482;2023-12-28T04:42:30;100250.16;;;3.97;100.00
35519;BME280;21627;48.216;16.482;2023-12-28T04:44:58;100250.91;;;3.93;100.00
35519;BME280;21627;48.216;16.482;2023-12-28T04:47:25;100260.28;;;3.94;100.00
35519;BME280;21627;48.216;16.482;2023-12-28T04:49:52;100255.44;;;4.02;100.00
35519;BME280;21627;48.216;16.482;2023-12-28T04:52:20;100256.16;;;3.98;100.00
35519;BME280;21627;48.216;16.482;2023-12-28T04:54:47;100265.69;;;4.02;100.00
35519;BME280;21627;48.216;16.482;2023-12-28T04:57:14;100276.00;;;4.05;100.00
35519;BME280;21627;48.216;16.482;2023-12-28T04:59:41;100272.53;;;4.03;100.00
35519;BME280;21627;48.216;16.482;2023-12-28T05:02:08;100267.97;;;3.94;100.00
35519;BME280;21627;48.216;16.482;2023-12-28T05:04:38;100274.06;;;3.98;100.00
35519;BME280;21627;48.216;16.482;2023-12-28T05:07:06;100269.00;;;3.99;100.00
35519;BME280;21627;48.216;16.482;2023-12-28T05:09:33;100272.31;;;3.97;100.00
35519;BME280;21627;48.216;16.482;2023-12-28T05:12:00;100280.16;;;4.01;100.00
35519;BME280;21627;48.216;16.482;2023-12-28T05:14:27;100281.91;;;4.02;100.00
35519;BME280;21627;48.216;16.482;2023-12-28T05:16:55;100279.25;;;3.99;100.00
35519;BME280;21627;48.216;16.482;2023-12-28T05:19:22;100280.19;;;4.03;100.00
35519;BME280;21627;48.216;16.482;2023-12-28T05:21:49;100282.75;;;4.03;100.00
35519;BME280;21627;48.216;16.482;2023-12-28T05:24:16;100281.84;;;4.01;100.00
35519;BME280;21627;48.216;16.482;2023-12-28T05:26:44;100282.63;;;3.98;100.00
35519;BME280;21627;48.216;16.482;2023-12-28T05:29:11;100274.22;;;4.02;100.00
35519;BME280;21627;48.216;16.482;2023-12-28T05:31:38;100270.69;;;3.99;100.00
35519;BME280;21627;48.216;16.482;2023-12-28T05:34:05;100275.16;;;4.04;100.00
35519;BME280;21627;48.216;16.482;2023-12-28T05:36:33;100283.69;;;4.05;100.00
35519;BME280;21627;48.216;16.482;2023-12-28T05:39:00;100264.66;;;3.97;100.00
35519;BME280;21627;48.216;16.482;2023-12-28T05:41:27;100278.97;;;3.92;100.00
35519;BME280;21627;48.216;16.482;2023-12-28T05:43:54;100271.97;;;3.86;100.00
35519;BME280;21627;48.216;16.482;2023-12-28T05:46:21;100272.09;;;3.90;100.00
35519;BME280;21627;48.216;16.482;2023-12-28T05:48:48;100279.03;;;3.93;100.00
35519;BME280;21627;48.216;16.482;2023-12-28T05:51:16;100294.59;;;3.99;100.00
35519;BME280;21627;48.216;16.482;2023-12-28T05:53:43;100285.19;;;3.98;100.00
35519;BME280;21627;48.216;16.482;2023-12-28T05:56:10;100280.75;;;3.94;100.00
35519;BME280;21627;48.216;16.482;2023-12-28T05:58:37;100289.41;;;3.98;100.00
35519;BME280;21627;48.216;16.482;2023-12-28T06:01:05;100291.84;;;3.95;100.00
35519;BME280;21627;48.216;16.482;2023-12-28T06:03:32;100294.38;;;3.93;100.00
35519;BME280;21627;48.216;16.482;2023-12-28T06:06:00;100291.66;;;3.88;100.00
35519;BME280;21627;48.216;16.482;2023-12-28T06:08:27;100288.38;;;3.93;100.00
35519;BME280;21627;48.216;16.482;2023-12-28T06:10:54;100295.19;;;3.92;100.00
35519;BME280;21627;48.216;16.482;2023-12-28T06:13:21;100293.38;;;3.89;100.00
35519;BME280;21627;48.216;16.482;2023-12-28T06:15:48;100308.16;;;3.97;100.00
35519;BME280;21627;48.216;16.482;2023-12-28T06:18:15;100309.75;;;3.95;100.00
35519;BME280;21627;48.216;16.482;2023-12-28T06:20:43;100297.03;;;3.96;100.00
35519;BME280;21627;48.216;16.482;2023-12-28T06:23:10;100297.06;;;3.98;100.00
35519;BME280;21627;48.216;16.482;2023-12-28T06:25:38;100289.47;;;3.99;100.00
35519;BME280;21627;48.216;16.482;2023-12-28T06:28:06;100295.41;;;3.98;100.00
35519;BME280;21627;48.216;16.482;2023-12-28T06:30:33;100290.34;;;4.00;100.00
35519;BME280;21627;48.216;16.482;2023-12-28T06:33:00;100301.41;;;3.99;100.00
35519;BME280;21627;48.216;16.482;2023-12-28T06:35:27;100297.03;;;3.96;100.00
35519;BME280;21627;48.216;16.482;2023-12-28T06:37:54;100295.41;;;3.98;100.00
35519;BME280;21627;48.216;16.482;2023-12-28T06:40:22;100310.88;;;4.01;100.00
35519;BME280;21627;48.216;16.482;2023-12-28T06:42:49;100309.06;;;3.99;100.00
35519;BME280;21627;48.216;16.482;2023-12-28T06:45:16;100313.25;;;3.97;100.00
35519;BME280;21627;48.216;16.482;2023-12-28T06:47:44;100312.50;;;3.99;100.00
35519;BME280;21627;48.216;16.482;2023-12-28T06:50:11;100314.22;;;4.00;100.00
35519;BME280;21627;48.216;16.482;2023-12-28T06:52:39;100311.91;;;4.06;100.00
35519;BME280;21627;48.216;16.482;2023-12-28T06:55:06;100315.97;;;4.01;100.00
35519;BME280;21627;48.216;16.482;2023-12-28T06:57:33;100314.28;;;4.02;100.00
35519;BME280;21627;48.216;16.482;2023-12-28T07:00:01;100320.34;;;4.04;100.00
35519;BME280;21627;48.216;16.482;2023-12-28T07:02:30;100325.47;;;4.04;100.00
35519;BME280;21627;48.216;16.482;2023-12-28T07:04:57;100325.56;;;4.07;100.00
35519;BME280;21627;48.216;16.482;2023-12-28T07:07:24;100326.22;;;4.01;100.00
35519;BME280;21627;48.216;16.482;2023-12-28T07:09:51;100330.75;;;4.08;100.00
35519;BME280;21627;48.216;16.482;2023-12-28T07:12:18;100321.31;;;4.07;100.00
35519;BME280;21627;48.216;16.482;2023-12-28T07:14:47;100311.72;;;4.02;100.00
35519;BME280;21627;48.216;16.482;2023-12-28T07:17:14;100327.16;;;4.03;100.00
35519;BME280;21627;48.216;16.482;2023-12-28T07:19:44;100331.59;;;4.09;100.00
35519;BME280;21627;48.216;16.482;2023-12-28T07:22:11;100333.41;;;4.11;100.00
35519;BME280;21627;48.216;16.482;2023-12-28T07:24:38;100327.34;;;4.09;100.00
35519;BME280;21627;48.216;16.482;2023-12-28T07:27:06;100335.78;;;4.07;100.00
35519;BME280;21627;48.216;16.482;2023-12-28T07:29:33;100327.25;;;4.06;100.00
35519;BME280;21627;48.216;16.482;2023-12-28T07:32:00;100328.13;;;4.07;100.00
35519;BME280;21627;48.216;16.482;2023-12-28T07:34:27;100337.50;;;4.06;100.00
35519;BME280;21627;48.216;16.482;2023-12-28T07:36:54;100333.72;;;3.97;100.00
35519;BME280;21627;48.216;16.482;2023-12-28T07:39:22;100340.91;;;4.07;100.00
35519;BME280;21627;48.216;16.482;2023-12-28T07:41:49;100335.44;;;3.98;100.00
35519;BME280;21627;48.216;16.482;2023-12-28T07:44:16;100340.72;;;4.01;100.00
35519;BME280;21627;48.216;16.482;2023-12-28T07:46:44;100341.88;;;4.10;100.00
35519;BME280;21627;48.216;16.482;2023-12-28T07:49:11;100338.19;;;4.02;100.00
35519;BME280;21627;48.216;16.482;2023-12-28T07:51:38;100345.16;;;4.06;100.00
35519;BME280;21627;48.216;16.482;2023-12-28T07:54:05;100343.53;;;4.08;100.00
35519;BME280;21627;48.216;16.482;2023-12-28T07:56:32;100340.16;;;4.09;100.00
35519;BME280;21627;48.216;16.482;2023-12-28T07:58:59;100339.97;;;4.05;100.00
35519;BME280;21627;48.216;16.482;2023-12-28T08:01:26;100337.38;;;4.03;100.00
35519;BME280;21627;48.216;16.482;2023-12-28T08:03:54;100330.47;;;4.01;100.00
35519;BME280;21627;48.216;16.482;2023-12-28T08:06:21;100328.81;;;4.03;100.00
35519;BME280;21627;48.216;16.482;2023-12-28T08:08:48;100333.31;;;4.08;100.00
35519;BME280;21627;48.216;16.482;2023-12-28T08:11:15;100331.72;;;4.12;100.00
35519;BME280;21627;48.216;16.482;2023-12-28T08:13:42;100335.22;;;4.16;100.00
35519;BME280;21627;48.216;16.482;2023-12-28T08:16:09;100342.97;;;4.17;100.00
35519;BME280;21627;48.216;16.482;2023-12-28T08:18:36;100348.28;;;4.23;100.00
35519;BME280;21627;48.216;16.482;2023-12-28T08:21:04;100346.63;;;4.24;100.00
35519;BME280;21627;48.216;16.482;2023-12-28T08:23:31;100350.06;;;4.24;100.00
35519;BME280;21627;48.216;16.482;2023-12-28T08:25:58;100357.66;;;4.72;100.00
35519;BME280;21627;48.216;16.482;2023-12-28T08:28:25;100336.47;;;4.76;100.00
35519;BME280;21627;48.216;16.482;2023-12-28T08:30:52;100355.94;;;4.71;100.00
35519;BME280;21627;48.216;16.482;2023-12-28T08:33:19;100345.53;;;4.67;100.00
35519;BME280;21627;48.216;16.482;2023-12-28T08:35:47;100356.63;;;4.67;100.00
35519;BME280;21627;48.216;16.482;2023-12-28T08:38:14;100360.03;;;4.66;100.00
35519;BME280;21627;48.216;16.482;2023-12-28T08:40:41;100372.88;;;4.68;100.00
35519;BME280;21627;48.216;16.482;2023-12-28T08:43:08;100370.16;;;4.63;100.00
35519;BME280;21627;48.216;16.482;2023-12-28T08:45:36;100367.59;;;4.63;100.00
35519;BME280;21627;48.216;16.482;2023-12-28T08:48:04;100372.06;;;4.69;100.00
35519;BME280;21627;48.216;16.482;2023-12-28T08:50:32;100363.38;;;4.64;100.00
35519;BME280;21627;48.216;16.482;2023-12-28T08:52:59;100373.75;;;4.68;100.00
35519;BME280;21627;48.216;16.482;2023-12-28T08:55:26;100365.88;;;4.62;100.00
35519;BME280;21627;48.216;16.482;2023-12-28T08:57:53;100374.56;;;4.67;100.00
35519;BME280;21627;48.216;16.482;2023-12-28T09:00:21;100373.81;;;4.70;100.00
35519;BME280;21627;48.216;16.482;2023-12-28T09:02:48;100377.56;;;4.80;100.00
35519;BME280;21627;48.216;16.482;2023-12-28T09:05:15;100378.88;;;4.68;100.00
35519;BME280;21627;48.216;16.482;2023-12-28T09:07:42;100375.41;;;4.66;100.00
35519;BME280;21627;48.216;16.482;2023-12-28T09:10:11;100382.41;;;4.72;100.00
35519;BME280;21627;48.216;16.482;2023-12-28T09:12:41;100394.56;;;4.77;100.00
35519;BME280;21627;48.216;16.482;2023-12-28T09:15:09;100397.19;;;4.79;100.00
35519;BME280;21627;48.216;16.482;2023-12-28T09:17:36;100390.09;;;4.72;100.00
35519;BME280;21627;48.216;16.482;2023-12-28T09:20:05;100379.94;;;4.75;100.00
35519;BME280;21627;48.216;16.482;2023-12-28T09:22:33;100377.84;;;4.63;100.00
35519;BME280;21627;48.216;16.482;2023-12-28T09:25:00;100386.63;;;4.70;100.00
35519;BME280;21627;48.216;16.482;2023-12-28T09:27:27;100381.69;;;4.76;100.00
35519;BME280;21627;48.216;16.482;2023-12-28T09:29:54;100393.13;;;4.86;100.00
35519;BME280;21627;48.216;16.482;2023-12-28T09:32:22;100371.69;;;4.84;100.00
35519;BME280;21627;48.216;16.482;2023-12-28T09:34:49;100377.72;;;4.84;100.00
35519;BME280;21627;48.216;16.482;2023-12-28T09:37:16;100381.13;;;4.85;100.00
35519;BME280;21627;48.216;16.482;2023-12-28T09:39:43;100369.03;;;4.81;100.00
35519;BME280;21627;48.216;16.482;2023-12-28T09:42:51;100374.22;;;4.82;100.00
35519;BME280;21627;48.216;16.482;2023-12-28T09:45:20;100369.63;;;4.73;100.00
35519;BME280;21627;48.216;16.482;2023-12-28T09:47:48;100360.22;;;4.72;100.00
35519;BME280;21627;48.216;16.482;2023-12-28T09:50:18;100349.38;;;4.80;100.00
35519;BME280;21627;48.216;16.482;2023-12-28T09:52:46;100360.41;;;4.78;100.00
35519;BME280;21627;48.216;16.482;2023-12-28T09:55:13;100348.34;;;4.74;100.00
35519;BME280;21627;48.216;16.482;2023-12-28T09:57:41;100344.94;;;4.75;100.00
35519;BME280;21627;48.216;16.482;2023-12-28T10:00:09;100355.44;;;4.83;100.00
35519;BME280;21627;48.216;16.482;2023-12-28T10:02:44;100353.50;;;5.02;100.00
35519;BME280;21627;48.216;16.482;2023-12-28T10:05:14;100345.28;;;4.86;100.00
35519;BME280;21627;48.216;16.482;2023-12-28T10:07:44;100346.97;;;4.84;100.00
35519;BME280;21627;48.216;16.482;2023-12-28T10:10:17;100332.53;;;4.88;100.00
35519;BME280;21627;48.216;16.482;2023-12-28T10:12:46;100338.59;;;4.90;100.00
35519;BME280;21627;48.216;16.482;2023-12-28T10:15:13;100325.88;;;4.93;100.00
35519;BME280;21627;48.216;16.482;2023-12-28T10:17:40;100321.13;;;5.05;100.00
35519;BME280;21627;48.216;16.482;2023-12-28T10:20:08;100323.00;;;5.11;100.00
35519;BME280;21627;48.216;16.482;2023-12-28T10:22:37;100317.63;;;5.02;100.00
35519;BME280;21627;48.216;16.482;2023-12-28T10:25:05;100304.56;;;4.94;100.00
35519;BME280;21627;48.216;16.482;2023-12-28T10:27:32;100314.38;;;5.07;100.00
35519;BME280;21627;48.216;16.482;2023-12-28T10:30:04;100311.06;;;5.11;100.00
35519;BME280;21627;48.216;16.482;2023-12-28T10:32:32;100311.13;;;5.13;100.00
35519;BME280;21627;48.216;16.482;2023-12-28T10:35:00;100309.19;;;5.06;100.00
35519;BME280;21627;48.216;16.482;2023-12-28T10:37:30;100291.22;;;5.04;100.00
35519;BME280;21627;48.216;16.482;2023-12-28T10:39:59;100301.78;;;5.15;100.00
35519;BME280;21627;48.216;16.482;2023-12-28T10:42:40;100304.34;;;5.15;100.00
35519;BME280;21627;48.216;16.482;2023-12-28T10:45:11;100301.72;;;5.12;100.00
35519;BME280;21627;48.216;16.482;2023-12-28T10:47:42;100305.50;;;5.25;100.00
35519;BME280;21627;48.216;16.482;2023-12-28T10:50:11;100313.22;;;5.26;100.00
35519;BME280;21627;48.216;16.482;2023-12-28T10:52:41;100297.75;;;5.23;100.00
35519;BME280;21627;48.216;16.482;2023-12-28T10:55:28;100296.25;;;5.30;100.00
35519;BME280;21627;48.216;16.482;2023-12-28T10:58:10;100299.84;;;5.35;100.00
35519;BME280;21627;48.216;16.482;2023-12-28T11:00:47;100292.78;;;5.28;100.00
35519;BME280;21627;48.216;16.482;2023-12-28T11:03:34;100297.34;;;5.38;100.00
35519;BME280;21627;48.216;16.482;2023-12-28T11:06:04;100294.84;;;5.39;100.00
35519;BME280;21627;48.216;16.482;2023-12-28T11:08:32;100285.88;;;5.25;100.00
35519;BME280;21627;48.216;16.482;2023-12-28T11:11:01;100276.25;;;5.18;100.00
35519;BME280;21627;48.216;16.482;2023-12-28T11:13:32;100275.38;;;5.17;100.00
35519;BME280;21627;48.216;16.482;2023-12-28T11:16:00;100269.50;;;5.21;100.00
35519;BME280;21627;48.216;16.482;2023-12-28T11:18:28;100264.13;;;5.12;100.00
35519;BME280;21627;48.216;16.482;2023-12-28T11:20:56;100265.28;;;5.22;100.00
35519;BME280;21627;48.216;16.482;2023-12-28T11:23:24;100262.06;;;5.29;100.00
35519;BME280;21627;48.216;16.482;2023-12-28T11:25:52;100264.84;;;5.37;100.00
35519;BME280;21627;48.216;16.482;2023-12-28T11:28:19;100268.94;;;5.30;100.00
35519;BME280;21627;48.216;16.482;2023-12-28T11:30:47;100259.41;;;5.26;100.00
35519;BME280;21627;48.216;16.482;2023-12-28T11:33:15;100261.41;;;5.67;100.00
35519;BME280;21627;48.216;16.482;2023-12-28T11:35:44;100265.44;;;5.57;100.00
35519;BME280;21627;48.216;16.482;2023-12-28T11:38:15;100252.44;;;5.82;100.00
35519;BME280;21627;48.216;16.482;2023-12-28T11:40:45;100260.75;;;5.74;100.00
35519;BME280;21627;48.216;16.482;2023-12-28T11:43:21;100246.41;;;5.80;100.00
35519;BME280;21627;48.216;16.482;2023-12-28T11:45:55;100260.38;;;5.92;100.00
35519;BME280;21627;48.216;16.482;2023-12-28T11:48:27;100246.94;;;5.69;100.00
35519;BME280;21627;48.216;16.482;2023-12-28T11:50:59;100243.06;;;5.84;100.00
35519;BME280;21627;48.216;16.482;2023-12-28T11:53:27;100233.03;;;5.92;100.00
35519;BME280;21627;48.216;16.482;2023-12-28T11:56:00;100233.31;;;5.71;100.00
35519;BME280;21627;48.216;16.482;2023-12-28T11:58:29;100227.84;;;5.59;100.00
35519;BME280;21627;48.216;16.482;2023-12-28T12:00:57;100226.94;;;5.89;100.00
35519;BME280;21627;48.216;16.482;2023-12-28T12:03:25;100235.91;;;6.03;100.00
35519;BME280;21627;48.216;16.482;2023-12-28T12:05:53;100224.88;;;6.07;100.00
35519;BME280;21627;48.216;16.482;2023-12-28T12:08:24;100223.91;;;5.70;100.00
35519;BME280;21627;48.216;16.482;2023-12-28T12:11:02;100228.34;;;5.46;100.00
35519;BME280;21627;48.216;16.482;2023-12-28T12:13:31;100234.09;;;5.69;100.00
35519;BME280;21627;48.216;16.482;2023-12-28T12:15:59;100232.84;;;5.54;100.00
35519;BME280;21627;48.216;16.482;2023-12-28T12:18:27;100245.56;;;5.50;100.00
35519;BME280;21627;48.216;16.482;2023-12-28T12:20:56;100234.31;;;5.16;100.00
35519;BME280;21627;48.216;16.482;2023-12-28T12:23:24;100231.78;;;4.89;100.00
35519;BME280;21627;48.216;16.482;2023-12-28T12:25:51;100229.38;;;4.93;100.00
35519;BME280;21627;48.216;16.482;2023-12-28T12:28:19;100228.75;;;4.73;100.00
35519;BME280;21627;48.216;16.482;2023-12-28T12:30:55;100221.19;;;4.49;100.00
35519;BME280;21627;48.216;16.482;2023-12-28T12:33:24;100219.19;;;4.41;100.00
35519;BME280;21627;48.216;16.482;2023-12-28T12:35:53;100224.22;;;4.38;100.00
35519;BME280;21627;48.216;16.482;2023-12-28T12:38:21;100221.16;;;4.22;100.00
35519;BME280;21627;48.216;16.482;2023-12-28T12:40:51;100211.78;;;4.23;100.00
35519;BME280;21627;48.216;16.482;2023-12-28T12:43:18;100223.66;;;4.21;100.00
35519;BME280;21627;48.216;16.482;2023-12-28T12:45:46;100220.84;;;4.13;100.00